Decoded Metar for YMDG ( in ) (IATA:) | Meteo·Mobile Aviation Weather
aviador You're here:

YMDG Decoded Metar

in
Report Time2019-07-22 16:00:00
UTC Time2019-07-22 16:22:37
Flight Rules vfr VFR
Wind010° at 02 kt
W.Decomp.*RWY 34: 1.7 kt HW 1.0 kt RCW
RWY 04: 1.7 kt HW 1 kt LCW
Visibility9999 m
Phenomena:N/A
Clouds:N/A
Expected CloudBase > 1,200 ft AGL from Temp-Dew spread
CeilingNone
Temp01°C
Dew Point-2°C (81% RH)
AAT-2.0°C
QNH1018 hPa
Raw Report
METAR YMDG 221600Z AUTO 01002KT 9999 // NCD 01/M02 Q1018=

Extra information for YMDG:More info

Social comments